createdAt,value
2022-12-17T00:00:28.160Z,17.92
2022-12-17T00:03:17.503Z,17.93
2022-12-17T00:06:03.042Z,17.93
2022-12-17T00:08:48.725Z,17.92
2022-12-17T00:11:34.333Z,17.92
2022-12-17T00:14:19.796Z,17.92
2022-12-17T00:17:05.241Z,17.92
2022-12-17T00:19:50.698Z,17.91
2022-12-17T00:22:37.316Z,17.92
2022-12-17T00:25:22.868Z,17.91
2022-12-17T00:28:08.313Z,17.92
2022-12-17T00:30:53.777Z,17.92
2022-12-17T00:33:39.376Z,17.92
2022-12-17T00:36:24.944Z,17.91
2022-12-17T00:39:10.433Z,17.90
2022-12-17T00:41:55.918Z,17.91
2022-12-17T00:44:41.859Z,17.90
2022-12-17T00:47:27.348Z,17.92
2022-12-17T00:50:12.809Z,17.91
2022-12-17T00:52:58.253Z,17.91
2022-12-17T00:55:43.710Z,17.91
2022-12-17T00:58:29.159Z,17.91
2022-12-17T01:01:18.242Z,17.90
2022-12-17T01:04:03.739Z,17.91
2022-12-17T01:06:49.202Z,17.90
2022-12-17T01:09:34.656Z,17.89
2022-12-17T01:12:20.105Z,17.90
2022-12-17T01:15:05.562Z,17.89
2022-12-17T01:17:51.039Z,17.89
2022-12-17T01:20:36.494Z,17.90
2022-12-17T01:23:21.926Z,17.89
2022-12-17T01:26:14.634Z,17.89
2022-12-17T01:29:00.214Z,17.88
2022-12-17T01:31:45.727Z,17.90
2022-12-17T01:34:31.211Z,17.90
2022-12-17T01:37:16.646Z,17.89
2022-12-17T01:40:02.111Z,17.89
2022-12-17T01:42:55.301Z,17.89
2022-12-17T01:45:40.792Z,17.89
2022-12-17T01:48:27.490Z,17.89
2022-12-17T01:51:13.432Z,17.89
2022-12-17T01:54:00.926Z,17.88
2022-12-17T01:56:46.490Z,17.89
2022-12-17T01:59:32.207Z,17.89
2022-12-17T02:02:17.827Z,17.89
2022-12-17T02:05:03.372Z,17.88
2022-12-17T02:08:08.757Z,17.88
2022-12-17T02:10:57.946Z,17.88
2022-12-17T02:13:48.358Z,17.88
2022-12-17T02:16:35.717Z,17.87
2022-12-17T02:19:23.501Z,17.88
2022-12-17T02:22:09.422Z,17.88
2022-12-17T02:25:03.955Z,17.87
2022-12-17T02:27:49.397Z,17.86
2022-12-17T02:30:34.845Z,17.87
2022-12-17T02:33:20.288Z,17.89
2022-12-17T02:36:07.660Z,17.88
2022-12-17T02:38:53.174Z,17.87
2022-12-17T02:41:44.243Z,17.87
2022-12-17T02:44:29.897Z,17.87
2022-12-17T02:47:15.486Z,17.86
2022-12-17T02:50:00.974Z,17.86
2022-12-17T14:51:41.588Z,17.69
2022-12-17T14:54:18.880Z,17.69
2022-12-17T14:56:45.223Z,17.69
2022-12-17T14:59:29.561Z,17.70
2022-12-17T15:01:56.415Z,17.70
2022-12-17T15:04:22.063Z,17.68
2022-12-17T15:06:47.956Z,17.69
2022-12-17T15:09:13.506Z,17.69
2022-12-17T15:11:39.042Z,17.69
2022-12-17T15:14:04.588Z,17.70
2022-12-17T15:16:30.250Z,17.69
2022-12-17T15:18:55.907Z,17.68
2022-12-17T15:21:21.450Z,17.69
2022-12-17T15:23:47.239Z,17.70
2022-12-17T15:26:14.311Z,17.68
2022-12-17T15:28:41.145Z,17.68
2022-12-17T15:31:08.243Z,17.69
2022-12-17T15:33:33.854Z,17.68
2022-12-17T15:35:59.397Z,17.69
2022-12-17T15:38:24.951Z,17.68
2022-12-17T15:40:50.488Z,17.69
2022-12-17T15:43:16.059Z,17.68
2022-12-17T15:45:42.853Z,17.69
2022-12-17T15:48:08.895Z,17.69
2022-12-17T15:50:34.479Z,17.69
2022-12-17T15:53:00.027Z,17.68
2022-12-17T15:55:25.573Z,17.69
2022-12-17T15:57:51.126Z,17.69
2022-12-17T16:00:17.515Z,17.69
2022-12-17T16:02:43.368Z,17.69
2022-12-17T16:05:09.128Z,17.68
2022-12-17T16:07:36.215Z,17.68
2022-12-17T16:10:05.064Z,17.67
2022-12-17T16:12:31.174Z,17.68
2022-12-17T16:14:56.726Z,17.69
2022-12-17T16:17:22.306Z,17.68
2022-12-17T16:19:47.875Z,17.68
2022-12-17T16:22:13.410Z,17.68
2022-12-17T16:24:40.105Z,17.67
2022-12-17T16:27:05.824Z,17.67
2022-12-17T16:29:31.385Z,17.67
2022-12-17T16:31:56.923Z,17.65
2022-12-17T16:34:22.474Z,17.66
2022-12-17T16:36:48.019Z,17.67
2022-12-17T16:39:14.595Z,17.68
2022-12-17T16:41:40.136Z,17.68
2022-12-17T16:44:05.683Z,17.68
2022-12-17T16:46:32.334Z,17.68
2022-12-17T16:48:59.210Z,17.68
2022-12-17T16:51:28.957Z,17.67
2022-12-17T16:53:55.201Z,17.68
2022-12-17T16:56:22.623Z,17.66
2022-12-17T16:58:48.201Z,17.66
2022-12-17T17:01:18.931Z,17.69
2022-12-17T17:03:44.650Z,17.65
2022-12-17T17:06:10.207Z,17.67
2022-12-17T17:08:36.531Z,17.65
2022-12-17T17:11:10.324Z,17.67
2022-12-17T17:13:36.036Z,17.67
2022-12-17T17:16:01.624Z,17.66
2022-12-17T17:18:27.234Z,17.67
2022-12-17T17:20:52.779Z,17.65
2022-12-17T17:23:18.331Z,17.67
2022-12-17T17:25:58.278Z,17.66
2022-12-17T17:28:24.333Z,17.67
2022-12-17T17:30:49.949Z,17.67
2022-12-17T17:33:15.532Z,17.65
2022-12-17T17:35:41.079Z,17.67
2022-12-17T17:38:06.633Z,17.66
2022-12-17T17:40:32.181Z,17.67
2022-12-17T17:42:57.733Z,17.66
2022-12-17T17:45:23.274Z,17.66
2022-12-17T17:47:48.822Z,17.66
2022-12-17T17:50:14.373Z,17.66
2022-12-17T17:52:39.934Z,17.66
2022-12-17T17:55:05.735Z,17.64
2022-12-17T17:57:31.303Z,17.65
2022-12-17T17:59:56.842Z,17.65
2022-12-17T18:02:22.449Z,17.65
2022-12-17T18:04:48.119Z,17.66
2022-12-17T18:07:25.362Z,17.64
2022-12-17T18:09:51.432Z,17.64
2022-12-17T18:12:36.885Z,17.65
2022-12-17T18:15:14.214Z,17.65
2022-12-17T18:17:40.715Z,17.65
2022-12-17T18:20:06.463Z,17.64
2022-12-17T18:22:32.025Z,17.65
2022-12-17T18:24:57.576Z,17.65
2022-12-17T18:27:23.123Z,17.65
2022-12-17T18:29:48.663Z,17.65
2022-12-17T18:32:14.235Z,17.65
2022-12-17T18:34:39.860Z,17.64
2022-12-17T18:37:05.471Z,17.64
2022-12-17T18:39:32.159Z,17.63
2022-12-17T18:42:17.635Z,17.63
2022-12-17T18:44:43.173Z,17.65
2022-12-17T18:47:09.095Z,17.64
2022-12-17T18:49:34.837Z,17.64
2022-12-17T18:52:00.384Z,17.65
2022-12-17T18:54:26.639Z,17.63
2022-12-17T18:57:00.916Z,17.64
2022-12-17T18:59:29.279Z,17.64
2022-12-17T19:01:55.770Z,17.65
2022-12-17T19:04:21.384Z,17.64
2022-12-17T19:06:52.508Z,17.63
2022-12-17T19:09:19.120Z,17.65
2022-12-17T19:11:44.660Z,17.64
2022-12-17T19:14:10.211Z,17.64
2022-12-17T19:16:35.838Z,17.64
2022-12-17T19:19:03.086Z,17.64
2022-12-17T19:21:28.712Z,17.63
2022-12-17T19:23:55.223Z,17.63
2022-12-17T19:26:21.235Z,17.64
2022-12-17T19:28:47.403Z,17.64
2022-12-17T19:31:13.365Z,17.63
2022-12-17T19:33:39.206Z,17.64
2022-12-17T19:36:05.982Z,17.63
2022-12-17T19:38:32.072Z,17.63
2022-12-17T19:41:05.369Z,17.62
2022-12-17T19:43:31.015Z,17.63
2022-12-17T19:46:12.693Z,17.62
2022-12-17T19:52:00.277Z,17.63
2022-12-17T19:54:25.822Z,17.62
2022-12-17T19:56:51.519Z,17.63
2022-12-17T19:59:17.066Z,17.63
2022-12-17T20:01:43.533Z,17.61
2022-12-17T20:04:12.747Z,17.63
2022-12-17T20:06:38.340Z,17.62
2022-12-17T20:09:04.561Z,17.62
2022-12-17T20:11:33.176Z,17.62
2022-12-17T20:13:59.712Z,17.61
2022-12-17T20:16:25.705Z,17.61
2022-12-17T20:18:51.271Z,17.62
2022-12-17T20:21:16.875Z,17.62
2022-12-17T20:23:44.653Z,17.62
2022-12-17T20:26:10.673Z,17.61
2022-12-17T20:28:36.787Z,17.61
2022-12-17T20:31:03.144Z,17.62
2022-12-17T20:33:28.804Z,17.61
2022-12-17T20:35:54.347Z,17.61
2022-12-17T20:38:20.044Z,17.62
2022-12-17T20:40:45.700Z,17.61
2022-12-17T20:43:11.250Z,17.62
2022-12-17T20:45:36.861Z,17.60
2022-12-17T20:48:02.500Z,17.61
2022-12-17T20:50:28.050Z,17.62
2022-12-17T20:52:53.590Z,17.62
2022-12-17T20:55:19.174Z,17.62
2022-12-17T20:57:44.719Z,17.61
2022-12-17T21:00:10.829Z,17.60
2022-12-17T21:02:36.633Z,17.62
2022-12-17T21:05:02.787Z,17.60
2022-12-17T21:07:28.352Z,17.61
2022-12-17T21:09:53.893Z,17.61
2022-12-17T21:12:19.451Z,17.60
2022-12-17T21:14:44.991Z,17.60
2022-12-17T21:17:10.748Z,17.61
2022-12-17T21:19:36.312Z,17.61
2022-12-17T21:22:02.550Z,17.60
2022-12-17T21:24:28.097Z,17.60
2022-12-17T21:26:53.650Z,17.60
2022-12-17T21:29:19.194Z,17.61
2022-12-17T21:31:45.702Z,17.59
2022-12-17T21:34:12.586Z,17.61
2022-12-17T21:36:38.256Z,17.60
2022-12-17T21:39:09.246Z,17.60
2022-12-17T21:41:36.135Z,17.61
2022-12-17T21:44:03.339Z,17.61
2022-12-17T21:46:29.040Z,17.60
2022-12-17T21:48:55.374Z,17.60
2022-12-17T21:51:21.125Z,17.60
2022-12-17T21:53:47.000Z,17.61
2022-12-17T21:56:15.237Z,17.60
2022-12-17T21:58:41.743Z,17.60
2022-12-17T22:01:17.012Z,17.59
2022-12-17T22:03:45.408Z,17.60
2022-12-17T22:06:12.421Z,17.59
2022-12-17T22:08:38.472Z,17.60
2022-12-17T22:11:21.579Z,17.60
2022-12-17T22:14:08.472Z,17.59
2022-12-17T22:16:38.257Z,17.59
2022-12-17T22:19:04.979Z,17.59
2022-12-17T22:21:32.262Z,17.59
2022-12-17T22:23:57.813Z,17.59
2022-12-17T22:26:23.356Z,17.58
2022-12-17T22:28:49.256Z,17.59
2022-12-17T22:31:36.004Z,17.59
2022-12-17T22:35:07.334Z,17.58
2022-12-17T22:40:05.179Z,17.59
2022-12-17T22:43:53.394Z,17.59
2022-12-17T22:44:34.690Z,17.60
2022-12-17T22:45:25.691Z,17.59
2022-12-17T22:47:51.591Z,17.57
2022-12-17T22:50:17.134Z,17.58
2022-12-17T22:52:43.335Z,17.56
2022-12-17T22:55:09.190Z,17.57
2022-12-17T22:57:38.203Z,17.58
2022-12-17T23:00:08.816Z,17.56
2022-12-17T23:02:35.593Z,17.58
2022-12-17T23:05:01.211Z,17.58
2022-12-17T23:07:31.518Z,17.58
2022-12-17T23:09:58.079Z,17.58
2022-12-17T23:12:43.589Z,17.57
2022-12-17T23:15:09.143Z,17.57
2022-12-17T23:17:35.532Z,17.58
2022-12-17T23:20:01.127Z,17.59
2022-12-17T23:22:26.684Z,17.56
2022-12-17T23:24:52.231Z,17.57
2022-12-17T23:27:17.780Z,17.57
2022-12-17T23:29:43.321Z,17.56
2022-12-17T23:32:08.879Z,17.59
2022-12-17T23:34:34.429Z,17.57
2022-12-17T23:36:59.976Z,17.58
2022-12-17T23:39:25.545Z,17.58
2022-12-17T23:41:52.943Z,17.58
2022-12-17T23:44:18.488Z,17.56
2022-12-17T23:46:44.116Z,17.56
2022-12-17T23:49:09.727Z,17.56
2022-12-17T23:51:35.280Z,17.55
2022-12-17T23:54:00.822Z,17.56
2022-12-17T23:56:27.094Z,17.57
2022-12-17T23:58:54.844Z,17.56
